sensor_id;sensor_type;location;lat;lon;timestamp;temperature;humidity
37998;DHT22;24079;51.824;4.682;2023-03-31T00:02:25;12.10;99.90
37998;DHT22;24079;51.824;4.682;2023-03-31T00:04:54;12.10;99.90
37998;DHT22;24079;51.824;4.682;2023-03-31T00:07:24;12.10;99.90
37998;DHT22;24079;51.824;4.682;2023-03-31T00:09:50;12.10;99.90
37998;DHT22;24079;51.824;4.682;2023-03-31T00:12:20;12.10;99.90
37998;DHT22;24079;51.824;4.682;2023-03-31T00:14:46;12.10;99.90
37998;DHT22;24079;51.824;4.682;2023-03-31T00:17:13;12.20;99.90
37998;DHT22;24079;51.824;4.682;2023-03-31T00:19:39;12.10;99.90
37998;DHT22;24079;51.824;4.682;2023-03-31T00:22:07;12.20;99.90
37998;DHT22;24079;51.824;4.682;2023-03-31T00:24:33;12.10;99.90
37998;DHT22;24079;51.824;4.682;2023-03-31T00:27:00;12.20;99.90
37998;DHT22;24079;51.824;4.682;2023-03-31T00:29:27;12.10;99.90
37998;DHT22;24079;51.824;4.682;2023-03-31T00:31:53;12.10;99.90
37998;DHT22;24079;51.824;4.682;2023-03-31T00:34:20;12.10;99.90
37998;DHT22;24079;51.824;4.682;2023-03-31T00:36:46;12.10;99.90
37998;DHT22;24079;51.824;4.682;2023-03-31T00:39:14;12.10;99.90
37998;DHT22;24079;51.824;4.682;2023-03-31T00:41:41;12.10;99.90
37998;DHT22;24079;51.824;4.682;2023-03-31T00:46:49;12.10;99.90
37998;DHT22;24079;51.824;4.682;2023-03-31T00:49:33;12.10;99.90
37998;DHT22;24079;51.824;4.682;2023-03-31T00:52:09;12.10;99.90
37998;DHT22;24079;51.824;4.682;2023-03-31T00:54:39;12.10;99.90
37998;DHT22;24079;51.824;4.682;2023-03-31T00:57:07;12.20;99.90
37998;DHT22;24079;51.824;4.682;2023-03-31T00:59:38;12.20;99.90
37998;DHT22;24079;51.824;4.682;2023-03-31T01:02:07;12.10;99.90
37998;DHT22;24079;51.824;4.682;2023-03-31T01:04:38;12.20;99.90
37998;DHT22;24079;51.824;4.682;2023-03-31T01:07:19;12.20;99.90
37998;DHT22;24079;51.824;4.682;2023-03-31T01:09:48;12.20;99.90
37998;DHT22;24079;51.824;4.682;2023-03-31T01:12:16;12.20;99.90
37998;DHT22;24079;51.824;4.682;2023-03-31T01:14:43;12.20;99.90
37998;DHT22;24079;51.824;4.682;2023-03-31T01:17:10;12.20;99.90
37998;DHT22;24079;51.824;4.682;2023-03-31T01:19:46;12.20;99.90
37998;DHT22;24079;51.824;4.682;2023-03-31T01:25:16;12.10;99.90
37998;DHT22;24079;51.824;4.682;2023-03-31T01:28:14;12.10;99.90
37998;DHT22;24079;51.824;4.682;2023-03-31T01:39:52;12.10;99.90
37998;DHT22;24079;51.824;4.682;2023-03-31T01:45:13;12.10;99.90
37998;DHT22;24079;51.824;4.682;2023-03-31T01:47:47;12.10;99.90
37998;DHT22;24079;51.824;4.682;2023-03-31T01:50:35;12.10;99.90
37998;DHT22;24079;51.824;4.682;2023-03-31T01:55:46;12.10;99.90
37998;DHT22;24079;51.824;4.682;2023-03-31T01:58:24;12.10;99.90
37998;DHT22;24079;51.824;4.682;2023-03-31T02:01:00;12.10;99.90
37998;DHT22;24079;51.824;4.682;2023-03-31T02:03:43;12.00;99.90
37998;DHT22;24079;51.824;4.682;2023-03-31T02:06:15;12.00;99.90
37998;DHT22;24079;51.824;4.682;2023-03-31T02:08:45;12.00;99.90
37998;DHT22;24079;51.824;4.682;2023-03-31T02:11:13;12.00;99.90
37998;DHT22;24079;51.824;4.682;2023-03-31T02:13:42;11.90;99.90
37998;DHT22;24079;51.824;4.682;2023-03-31T02:16:13;11.90;99.90
37998;DHT22;24079;51.824;4.682;2023-03-31T02:18:43;11.90;99.90
37998;DHT22;24079;51.824;4.682;2023-03-31T02:21:12;11.90;99.90
37998;DHT22;24079;51.824;4.682;2023-03-31T02:23:39;11.80;99.90
37998;DHT22;24079;51.824;4.682;2023-03-31T02:26:20;11.80;99.90
37998;DHT22;24079;51.824;4.682;2023-03-31T02:28:49;11.80;99.90
37998;DHT22;24079;51.824;4.682;2023-03-31T02:33:47;11.70;99.90
37998;DHT22;24079;51.824;4.682;2023-03-31T02:36:14;11.70;99.90
37998;DHT22;24079;51.824;4.682;2023-03-31T02:39:07;11.70;99.90
37998;DHT22;24079;51.824;4.682;2023-03-31T02:41:34;11.60;99.90
37998;DHT22;24079;51.824;4.682;2023-03-31T02:44:01;11.60;99.90
37998;DHT22;24079;51.824;4.682;2023-03-31T02:46:27;11.60;99.90
37998;DHT22;24079;51.824;4.682;2023-03-31T02:48:56;11.60;99.90
37998;DHT22;24079;51.824;4.682;2023-03-31T02:51:39;11.60;99.90
37998;DHT22;24079;51.824;4.682;2023-03-31T02:57:09;11.50;99.90
37998;DHT22;24079;51.824;4.682;2023-03-31T02:59:53;11.50;99.90
37998;DHT22;24079;51.824;4.682;2023-03-31T03:05:31;11.50;99.90
37998;DHT22;24079;51.824;4.682;2023-03-31T03:08:16;11.40;99.90
37998;DHT22;24079;51.824;4.682;2023-03-31T03:11:10;11.40;99.90
37998;DHT22;24079;51.824;4.682;2023-03-31T03:13:50;11.40;99.90
37998;DHT22;24079;51.824;4.682;2023-03-31T03:16:24;11.50;99.90
37998;DHT22;24079;51.824;4.682;2023-03-31T03:19:03;11.50;99.90
37998;DHT22;24079;51.824;4.682;2023-03-31T03:21:30;11.50;99.90
37998;DHT22;24079;51.824;4.682;2023-03-31T03:23:56;11.50;99.90
37998;DHT22;24079;51.824;4.682;2023-03-31T03:26:22;11.50;99.90
37998;DHT22;24079;51.824;4.682;2023-03-31T03:28:55;11.50;99.90
37998;DHT22;24079;51.824;4.682;2023-03-31T03:31:22;11.50;99.90
37998;DHT22;24079;51.824;4.682;2023-03-31T03:33:49;11.50;99.90
37998;DHT22;24079;51.824;4.682;2023-03-31T03:36:16;11.50;99.90
37998;DHT22;24079;51.824;4.682;2023-03-31T03:38:42;11.40;99.90
37998;DHT22;24079;51.824;4.682;2023-03-31T03:41:08;11.40;99.90
37998;DHT22;24079;51.824;4.682;2023-03-31T03:43:35;11.40;99.90
37998;DHT22;24079;51.824;4.682;2023-03-31T03:46:01;11.40;99.90
37998;DHT22;24079;51.824;4.682;2023-03-31T03:48:27;11.40;99.90
37998;DHT22;24079;51.824;4.682;2023-03-31T03:50:53;11.40;99.90
37998;DHT22;24079;51.824;4.682;2023-03-31T03:53:20;11.40;99.90
37998;DHT22;24079;51.824;4.682;2023-03-31T03:55:46;11.30;99.90
37998;DHT22;24079;51.824;4.682;2023-03-31T03:58:16;11.30;99.90
37998;DHT22;24079;51.824;4.682;2023-03-31T04:00:44;11.40;99.90
37998;DHT22;24079;51.824;4.682;2023-03-31T04:03:11;11.30;99.90
37998;DHT22;24079;51.824;4.682;2023-03-31T04:05:38;11.30;99.90
37998;DHT22;24079;51.824;4.682;2023-03-31T04:08:04;11.30;99.90
37998;DHT22;24079;51.824;4.682;2023-03-31T04:10:31;11.30;99.90
37998;DHT22;24079;51.824;4.682;2023-03-31T04:12:57;11.30;99.90
37998;DHT22;24079;51.824;4.682;2023-03-31T04:15:23;11.30;99.90
37998;DHT22;24079;51.824;4.682;2023-03-31T04:17:49;11.30;99.90
37998;DHT22;24079;51.824;4.682;2023-03-31T04:20:20;11.30;99.90
37998;DHT22;24079;51.824;4.682;2023-03-31T04:22:46;11.30;99.90
37998;DHT22;24079;51.824;4.682;2023-03-31T04:25:15;11.30;99.90
37998;DHT22;24079;51.824;4.682;2023-03-31T04:27:43;11.30;99.90
37998;DHT22;24079;51.824;4.682;2023-03-31T04:30:16;11.30;99.90
37998;DHT22;24079;51.824;4.682;2023-03-31T04:32:54;11.30;99.90
37998;DHT22;24079;51.824;4.682;2023-03-31T04:35:22;11.30;99.90
37998;DHT22;24079;51.824;4.682;2023-03-31T04:37:50;11.40;99.90
37998;DHT22;24079;51.824;4.682;2023-03-31T04:40:17;11.30;99.90
37998;DHT22;24079;51.824;4.682;2023-03-31T04:42:44;11.30;99.90
37998;DHT22;24079;51.824;4.682;2023-03-31T04:45:12;11.30;99.90
37998;DHT22;24079;51.824;4.682;2023-03-31T04:47:38;11.30;99.90
37998;DHT22;24079;51.824;4.682;2023-03-31T04:50:05;11.30;99.90
37998;DHT22;24079;51.824;4.682;2023-03-31T04:52:32;11.30;99.90
37998;DHT22;24079;51.824;4.682;2023-03-31T04:54:58;11.30;99.90
37998;DHT22;24079;51.824;4.682;2023-03-31T04:57:24;11.30;99.90
37998;DHT22;24079;51.824;4.682;2023-03-31T04:59:50;11.30;99.90
37998;DHT22;24079;51.824;4.682;2023-03-31T05:02:16;11.30;99.90
37998;DHT22;24079;51.824;4.682;2023-03-31T05:04:51;11.30;99.90
37998;DHT22;24079;51.824;4.682;2023-03-31T05:07:18;11.30;99.90
37998;DHT22;24079;51.824;4.682;2023-03-31T05:09:44;11.30;99.90
37998;DHT22;24079;51.824;4.682;2023-03-31T05:12:11;11.30;99.90
37998;DHT22;24079;51.824;4.682;2023-03-31T05:14:38;11.30;99.90
37998;DHT22;24079;51.824;4.682;2023-03-31T05:17:04;11.30;99.90
37998;DHT22;24079;51.824;4.682;2023-03-31T05:19:30;11.30;99.90
37998;DHT22;24079;51.824;4.682;2023-03-31T05:21:56;11.30;99.90
37998;DHT22;24079;51.824;4.682;2023-03-31T05:24:23;11.20;99.90
37998;DHT22;24079;51.824;4.682;2023-03-31T05:26:49;11.20;99.90
37998;DHT22;24079;51.824;4.682;2023-03-31T05:29:18;11.20;99.90
37998;DHT22;24079;51.824;4.682;2023-03-31T05:31:44;11.30;99.90
37998;DHT22;24079;51.824;4.682;2023-03-31T05:34:11;11.10;99.90
37998;DHT22;24079;51.824;4.682;2023-03-31T05:36:36;11.10;99.90
37998;DHT22;24079;51.824;4.682;2023-03-31T05:39:04;11.10;99.90
37998;DHT22;24079;51.824;4.682;2023-03-31T05:41:30;11.10;99.90
37998;DHT22;24079;51.824;4.682;2023-03-31T05:43:56;11.20;99.90
37998;DHT22;24079;51.824;4.682;2023-03-31T05:46:22;11.10;99.90
37998;DHT22;24079;51.824;4.682;2023-03-31T05:48:48;11.20;99.90
37998;DHT22;24079;51.824;4.682;2023-03-31T05:51:14;11.10;99.90
37998;DHT22;24079;51.824;4.682;2023-03-31T05:53:40;11.10;99.90
37998;DHT22;24079;51.824;4.682;2023-03-31T05:56:07;11.10;99.90
37998;DHT22;24079;51.824;4.682;2023-03-31T05:58:34;11.10;99.90
37998;DHT22;24079;51.824;4.682;2023-03-31T06:01:08;11.20;99.90
37998;DHT22;24079;51.824;4.682;2023-03-31T06:03:36;11.20;99.90
37998;DHT22;24079;51.824;4.682;2023-03-31T06:06:04;11.10;99.90
37998;DHT22;24079;51.824;4.682;2023-03-31T06:08:31;11.10;99.90
37998;DHT22;24079;51.824;4.682;2023-03-31T06:10:57;11.10;99.90
37998;DHT22;24079;51.824;4.682;2023-03-31T06:13:23;11.10;99.90
37998;DHT22;24079;51.824;4.682;2023-03-31T06:15:56;11.10;99.90
37998;DHT22;24079;51.824;4.682;2023-03-31T06:18:23;11.10;99.90
37998;DHT22;24079;51.824;4.682;2023-03-31T06:20:50;11.10;99.90
37998;DHT22;24079;51.824;4.682;2023-03-31T06:23:16;11.10;99.90
37998;DHT22;24079;51.824;4.682;2023-03-31T06:25:43;11.10;99.90
37998;DHT22;24079;51.824;4.682;2023-03-31T06:28:08;11.10;99.90
37998;DHT22;24079;51.824;4.682;2023-03-31T06:30:34;11.10;99.90
37998;DHT22;24079;51.824;4.682;2023-03-31T06:33:00;11.10;99.90
37998;DHT22;24079;51.824;4.682;2023-03-31T06:35:26;11.10;99.90
37998;DHT22;24079;51.824;4.682;2023-03-31T06:37:52;11.20;99.90
37998;DHT22;24079;51.824;4.682;2023-03-31T06:40:18;11.20;99.90
37998;DHT22;24079;51.824;4.682;2023-03-31T06:42:43;11.20;99.90
37998;DHT22;24079;51.824;4.682;2023-03-31T06:45:09;11.10;99.90
37998;DHT22;24079;51.824;4.682;2023-03-31T06:47:35;11.10;99.90
37998;DHT22;24079;51.824;4.682;2023-03-31T06:50:07;11.10;99.90
37998;DHT22;24079;51.824;4.682;2023-03-31T06:52:34;11.10;99.90
37998;DHT22;24079;51.824;4.682;2023-03-31T06:55:00;11.20;99.90
37998;DHT22;24079;51.824;4.682;2023-03-31T06:57:27;11.20;99.90
37998;DHT22;24079;51.824;4.682;2023-03-31T06:59:53;11.20;99.90
37998;DHT22;24079;51.824;4.682;2023-03-31T07:02:19;11.20;99.90
37998;DHT22;24079;51.824;4.682;2023-03-31T07:04:46;11.30;99.90
37998;DHT22;24079;51.824;4.682;2023-03-31T07:07:11;11.30;99.90
37998;DHT22;24079;51.824;4.682;2023-03-31T07:09:37;11.30;99.90
37998;DHT22;24079;51.824;4.682;2023-03-31T07:12:03;11.30;99.90
37998;DHT22;24079;51.824;4.682;2023-03-31T07:14:30;11.30;99.90
37998;DHT22;24079;51.824;4.682;2023-03-31T07:16:57;11.40;99.90
37998;DHT22;24079;51.824;4.682;2023-03-31T07:19:23;11.30;99.90
37998;DHT22;24079;51.824;4.682;2023-03-31T07:21:49;11.30;99.90
37998;DHT22;24079;51.824;4.682;2023-03-31T07:24:16;11.40;99.90
37998;DHT22;24079;51.824;4.682;2023-03-31T07:26:42;11.40;99.90
37998;DHT22;24079;51.824;4.682;2023-03-31T07:29:08;11.40;99.90
37998;DHT22;24079;51.824;4.682;2023-03-31T07:31:34;11.50;99.90
37998;DHT22;24079;51.824;4.682;2023-03-31T07:34:01;11.50;99.90
37998;DHT22;24079;51.824;4.682;2023-03-31T07:36:27;11.50;99.90
37998;DHT22;24079;51.824;4.682;2023-03-31T07:38:54;11.60;99.90
37998;DHT22;24079;51.824;4.682;2023-03-31T07:41:21;11.60;99.90
37998;DHT22;24079;51.824;4.682;2023-03-31T07:43:50;11.60;99.90
37998;DHT22;24079;51.824;4.682;2023-03-31T07:46:22;11.70;99.90
37998;DHT22;24079;51.824;4.682;2023-03-31T07:48:49;11.70;99.90
37998;DHT22;24079;51.824;4.682;2023-03-31T07:51:16;11.70;99.90
37998;DHT22;24079;51.824;4.682;2023-03-31T07:53:44;11.80;99.90
37998;DHT22;24079;51.824;4.682;2023-03-31T07:56:11;11.90;99.90
37998;DHT22;24079;51.824;4.682;2023-03-31T07:58:37;11.90;99.90
37998;DHT22;24079;51.824;4.682;2023-03-31T08:01:03;11.90;99.90
37998;DHT22;24079;51.824;4.682;2023-03-31T08:03:29;11.90;99.90
37998;DHT22;24079;51.824;4.682;2023-03-31T08:05:56;11.90;99.90
37998;DHT22;24079;51.824;4.682;2023-03-31T08:08:22;12.00;99.90
37998;DHT22;24079;51.824;4.682;2023-03-31T08:10:49;12.00;99.90
37998;DHT22;24079;51.824;4.682;2023-03-31T08:13:15;12.10;99.90
37998;DHT22;24079;51.824;4.682;2023-03-31T08:15:41;12.10;99.90
37998;DHT22;24079;51.824;4.682;2023-03-31T08:18:07;12.20;99.90
37998;DHT22;24079;51.824;4.682;2023-03-31T08:20:33;12.20;99.90
37998;DHT22;24079;51.824;4.682;2023-03-31T08:22:59;12.30;99.90
37998;DHT22;24079;51.824;4.682;2023-03-31T08:25:25;12.50;99.90
37998;DHT22;24079;51.824;4.682;2023-03-31T08:27:51;12.60;99.90
37998;DHT22;24079;51.824;4.682;2023-03-31T08:30:18;12.80;99.90
37998;DHT22;24079;51.824;4.682;2023-03-31T08:32:45;12.80;99.90
37998;DHT22;24079;51.824;4.682;2023-03-31T08:35:11;12.90;99.90
37998;DHT22;24079;51.824;4.682;2023-03-31T08:37:37;12.90;99.90
37998;DHT22;24079;51.824;4.682;2023-03-31T08:40:05;13.00;99.90
37998;DHT22;24079;51.824;4.682;2023-03-31T08:42:35;12.90;99.90
37998;DHT22;24079;51.824;4.682;2023-03-31T08:47:41;12.80;99.90
37998;DHT22;24079;51.824;4.682;2023-03-31T08:50:18;12.90;99.90
37998;DHT22;24079;51.824;4.682;2023-03-31T08:52:51;13.00;99.90
37998;DHT22;24079;51.824;4.682;2023-03-31T08:55:24;13.10;99.90
37998;DHT22;24079;51.824;4.682;2023-03-31T08:58:00;13.10;99.90
37998;DHT22;24079;51.824;4.682;2023-03-31T09:00:37;13.00;99.90
37998;DHT22;24079;51.824;4.682;2023-03-31T09:03:09;12.90;99.90
37998;DHT22;24079;51.824;4.682;2023-03-31T09:05:46;13.10;99.90
37998;DHT22;24079;51.824;4.682;2023-03-31T09:08:24;13.20;99.90
37998;DHT22;24079;51.824;4.682;2023-03-31T09:11:48;13.00;99.90
37998;DHT22;24079;51.824;4.682;2023-03-31T09:14:20;13.10;99.90
37998;DHT22;24079;51.824;4.682;2023-03-31T09:17:01;13.20;99.90
37998;DHT22;24079;51.824;4.682;2023-03-31T09:19:36;13.30;99.90
37998;DHT22;24079;51.824;4.682;2023-03-31T09:22:08;13.30;99.90
37998;DHT22;24079;51.824;4.682;2023-03-31T09:24:45;13.30;99.90
37998;DHT22;24079;51.824;4.682;2023-03-31T09:27:12;13.30;99.90
37998;DHT22;24079;51.824;4.682;2023-03-31T09:29:50;13.20;99.90
37998;DHT22;24079;51.824;4.682;2023-03-31T09:32:30;13.30;99.90
37998;DHT22;24079;51.824;4.682;2023-03-31T09:35:20;13.40;99.90
37998;DHT22;24079;51.824;4.682;2023-03-31T09:37:48;13.30;99.90
37998;DHT22;24079;51.824;4.682;2023-03-31T09:40:17;13.30;99.90
37998;DHT22;24079;51.824;4.682;2023-03-31T09:42:45;13.30;99.90
37998;DHT22;24079;51.824;4.682;2023-03-31T09:45:16;13.30;99.90
37998;DHT22;24079;51.824;4.682;2023-03-31T09:47:44;13.20;99.90
37998;DHT22;24079;51.824;4.682;2023-03-31T09:50:11;13.30;99.90
37998;DHT22;24079;51.824;4.682;2023-03-31T09:52:42;13.30;99.90
37998;DHT22;24079;51.824;4.682;2023-03-31T09:55:20;13.40;99.90
37998;DHT22;24079;51.824;4.682;2023-03-31T09:57:46;13.40;99.90
37998;DHT22;24079;51.824;4.682;2023-03-31T10:02:53;13.50;99.90
37998;DHT22;24079;51.824;4.682;2023-03-31T10:05:37;13.60;99.90
37998;DHT22;24079;51.824;4.682;2023-03-31T10:10:47;13.50;99.90
37998;DHT22;24079;51.824;4.682;2023-03-31T10:13:18;13.40;99.90
37998;DHT22;24079;51.824;4.682;2023-03-31T10:15:44;13.40;99.90
37998;DHT22;24079;51.824;4.682;2023-03-31T10:18:15;13.40;99.90
37998;DHT22;24079;51.824;4.682;2023-03-31T10:20:50;13.30;99.90
37998;DHT22;24079;51.824;4.682;2023-03-31T10:23:25;13.30;99.90
37998;DHT22;24079;51.824;4.682;2023-03-31T10:25:52;13.50;99.90
37998;DHT22;24079;51.824;4.682;2023-03-31T10:28:20;13.40;99.90
37998;DHT22;24079;51.824;4.682;2023-03-31T10:30:49;13.30;99.90
37998;DHT22;24079;51.824;4.682;2023-03-31T10:33:19;13.10;99.90
37998;DHT22;24079;51.824;4.682;2023-03-31T10:35:53;13.00;99.90
37998;DHT22;24079;51.824;4.682;2023-03-31T10:38:26;12.90;99.90
37998;DHT22;24079;51.824;4.682;2023-03-31T10:40:56;12.70;99.90
37998;DHT22;24079;51.824;4.682;2023-03-31T10:43:29;12.60;99.90
37998;DHT22;24079;51.824;4.682;2023-03-31T10:45:59;12.60;99.90
37998;DHT22;24079;51.824;4.682;2023-03-31T10:48:32;12.50;99.90
37998;DHT22;24079;51.824;4.682;2023-03-31T10:51:11;12.50;99.90
37998;DHT22;24079;51.824;4.682;2023-03-31T10:54:01;12.60;99.90
37998;DHT22;24079;51.824;4.682;2023-03-31T10:56:46;12.50;99.90
37998;DHT22;24079;51.824;4.682;2023-03-31T11:10:47;12.60;99.90
37998;DHT22;24079;51.824;4.682;2023-03-31T11:26:41;12.60;99.90
37998;DHT22;24079;51.824;4.682;2023-03-31T11:29:32;12.70;99.90
37998;DHT22;24079;51.824;4.682;2023-03-31T11:51:37;12.90;99.90
37998;DHT22;24079;51.824;4.682;2023-03-31T11:54:06;13.00;99.90
37998;DHT22;24079;51.824;4.682;2023-03-31T11:56:38;13.00;99.90
37998;DHT22;24079;51.824;4.682;2023-03-31T11:59:06;12.80;99.90
37998;DHT22;24079;51.824;4.682;2023-03-31T12:01:51;12.70;99.90
37998;DHT22;24079;51.824;4.682;2023-03-31T12:06:51;12.40;99.90
37998;DHT22;24079;51.824;4.682;2023-03-31T12:09:21;12.50;99.90
37998;DHT22;24079;51.824;4.682;2023-03-31T12:12:02;12.40;99.90
37998;DHT22;24079;51.824;4.682;2023-03-31T12:14:53;12.50;99.90
37998;DHT22;24079;51.824;4.682;2023-03-31T12:17:27;12.50;99.90
37998;DHT22;24079;51.824;4.682;2023-03-31T12:19:59;12.50;99.90
37998;DHT22;24079;51.824;4.682;2023-03-31T12:25:14;12.60;99.90
37998;DHT22;24079;51.824;4.682;2023-03-31T12:27:43;12.60;99.90
37998;DHT22;24079;51.824;4.682;2023-03-31T12:30:30;12.50;99.90
37998;DHT22;24079;51.824;4.682;2023-03-31T12:33:06;12.70;99.90
37998;DHT22;24079;51.824;4.682;2023-03-31T12:57:03;12.40;99.90
37998;DHT22;24079;51.824;4.682;2023-03-31T12:59:40;12.30;99.90
37998;DHT22;24079;51.824;4.682;2023-03-31T13:04:42;12.30;99.90
37998;DHT22;24079;51.824;4.682;2023-03-31T13:07:36;12.40;99.90
37998;DHT22;24079;51.824;4.682;2023-03-31T13:13:13;12.60;99.90
37998;DHT22;24079;51.824;4.682;2023-03-31T13:15:57;12.70;99.90
37998;DHT22;24079;51.824;4.682;2023-03-31T13:18:28;12.90;99.90
37998;DHT22;24079;51.824;4.682;2023-03-31T13:21:00;13.00;99.90
37998;DHT22;24079;51.824;4.682;2023-03-31T13:23:32;13.00;99.90
37998;DHT22;24079;51.824;4.682;2023-03-31T13:25:59;13.00;99.90
37998;DHT22;24079;51.824;4.682;2023-03-31T13:28:31;13.00;99.90
37998;DHT22;24079;51.824;4.682;2023-03-31T13:30:58;12.90;99.90
37998;DHT22;24079;51.824;4.682;2023-03-31T13:44:59;12.50;99.90
37998;DHT22;24079;51.824;4.682;2023-03-31T13:53:32;12.50;99.90
37998;DHT22;24079;51.824;4.682;2023-03-31T14:02:22;12.70;99.90
37998;DHT22;24079;51.824;4.682;2023-03-31T14:07:20;12.50;99.90
37998;DHT22;24079;51.824;4.682;2023-03-31T14:09:51;12.40;99.90
37998;DHT22;24079;51.824;4.682;2023-03-31T14:14:55;12.30;99.90
37998;DHT22;24079;51.824;4.682;2023-03-31T14:17:30;12.30;99.90
37998;DHT22;24079;51.824;4.682;2023-03-31T14:31:32;12.20;99.90
37998;DHT22;24079;51.824;4.682;2023-03-31T14:36:49;12.20;99.90
37998;DHT22;24079;51.824;4.682;2023-03-31T14:39:26;12.10;99.90
37998;DHT22;24079;51.824;4.682;2023-03-31T14:41:57;12.10;99.90
37998;DHT22;24079;51.824;4.682;2023-03-31T14:44:24;12.10;99.90
37998;DHT22;24079;51.824;4.682;2023-03-31T14:46:51;12.10;99.90
37998;DHT22;24079;51.824;4.682;2023-03-31T14:49:22;12.00;99.90
37998;DHT22;24079;51.824;4.682;2023-03-31T14:51:52;12.10;99.90
37998;DHT22;24079;51.824;4.682;2023-03-31T14:54:20;12.10;99.90
37998;DHT22;24079;51.824;4.682;2023-03-31T14:56:54;12.00;99.90
37998;DHT22;24079;51.824;4.682;2023-03-31T14:59:30;12.00;99.90
37998;DHT22;24079;51.824;4.682;2023-03-31T15:02:01;12.00;99.90
37998;DHT22;24079;51.824;4.682;2023-03-31T15:04:30;12.00;99.90
37998;DHT22;24079;51.824;4.682;2023-03-31T15:07:00;12.00;99.90
37998;DHT22;24079;51.824;4.682;2023-03-31T15:09:29;11.90;99.90
37998;DHT22;24079;51.824;4.682;2023-03-31T15:12:06;11.90;99.90
37998;DHT22;24079;51.824;4.682;2023-03-31T15:14:48;11.80;99.90
37998;DHT22;24079;51.824;4.682;2023-03-31T15:17:28;11.80;99.90
37998;DHT22;24079;51.824;4.682;2023-03-31T15:19:58;11.90;99.90
37998;DHT22;24079;51.824;4.682;2023-03-31T15:22:26;11.90;99.90
37998;DHT22;24079;51.824;4.682;2023-03-31T15:24:54;12.00;99.90
37998;DHT22;24079;51.824;4.682;2023-03-31T15:27:32;12.00;99.90
37998;DHT22;24079;51.824;4.682;2023-03-31T15:30:02;12.10;99.90
37998;DHT22;24079;51.824;4.682;2023-03-31T15:32:36;12.10;99.90
37998;DHT22;24079;51.824;4.682;2023-03-31T15:35:04;12.10;99.90
37998;DHT22;24079;51.824;4.682;2023-03-31T15:37:42;12.20;99.90
37998;DHT22;24079;51.824;4.682;2023-03-31T15:40:26;12.40;99.90
37998;DHT22;24079;51.824;4.682;2023-03-31T15:45:59;12.10;99.90
37998;DHT22;24079;51.824;4.682;2023-03-31T15:51:27;12.00;99.90
37998;DHT22;24079;51.824;4.682;2023-03-31T15:53:54;11.90;99.90
37998;DHT22;24079;51.824;4.682;2023-03-31T15:56:34;11.80;99.90
37998;DHT22;24079;51.824;4.682;2023-03-31T15:59:20;11.90;99.90
37998;DHT22;24079;51.824;4.682;2023-03-31T16:01:48;11.90;99.90
37998;DHT22;24079;51.824;4.682;2023-03-31T16:04:14;11.80;99.90
37998;DHT22;24079;51.824;4.682;2023-03-31T16:07:00;11.70;99.90
37998;DHT22;24079;51.824;4.682;2023-03-31T16:09:50;11.70;99.90
37998;DHT22;24079;51.824;4.682;2023-03-31T16:12:30;11.70;99.90
37998;DHT22;24079;51.824;4.682;2023-03-31T16:15:13;11.70;99.90
37998;DHT22;24079;51.824;4.682;2023-03-31T16:17:48;11.70;99.90
37998;DHT22;24079;51.824;4.682;2023-03-31T16:20:20;11.60;99.90
37998;DHT22;24079;51.824;4.682;2023-03-31T16:22:50;11.50;99.90
37998;DHT22;24079;51.824;4.682;2023-03-31T16:25:21;11.50;99.90
37998;DHT22;24079;51.824;4.682;2023-03-31T16:27:58;11.50;99.90
37998;DHT22;24079;51.824;4.682;2023-03-31T16:30:37;11.50;99.90
37998;DHT22;24079;51.824;4.682;2023-03-31T16:33:09;11.50;99.90
37998;DHT22;24079;51.824;4.682;2023-03-31T16:35:36;11.50;99.90
37998;DHT22;24079;51.824;4.682;2023-03-31T16:38:04;11.50;99.90
37998;DHT22;24079;51.824;4.682;2023-03-31T16:40:36;11.40;99.90
37998;DHT22;24079;51.824;4.682;2023-03-31T16:43:06;11.40;99.90
37998;DHT22;24079;51.824;4.682;2023-03-31T16:45:32;11.40;99.90
37998;DHT22;24079;51.824;4.682;2023-03-31T16:47:58;11.50;99.90
37998;DHT22;24079;51.824;4.682;2023-03-31T16:50:24;11.50;99.90
37998;DHT22;24079;51.824;4.682;2023-03-31T16:52:50;11.40;99.90
37998;DHT22;24079;51.824;4.682;2023-03-31T16:55:16;11.40;99.90
37998;DHT22;24079;51.824;4.682;2023-03-31T16:57:42;11.40;99.90
37998;DHT22;24079;51.824;4.682;2023-03-31T17:00:09;11.30;99.90
37998;DHT22;24079;51.824;4.682;2023-03-31T17:02:35;11.40;99.90
37998;DHT22;24079;51.824;4.682;2023-03-31T17:05:01;11.30;99.90
37998;DHT22;24079;51.824;4.682;2023-03-31T17:07:27;11.40;99.90
37998;DHT22;24079;51.824;4.682;2023-03-31T17:09:55;11.30;99.90
37998;DHT22;24079;51.824;4.682;2023-03-31T17:12:21;11.30;99.90
37998;DHT22;24079;51.824;4.682;2023-03-31T17:14:47;11.30;99.90
37998;DHT22;24079;51.824;4.682;2023-03-31T17:17:13;11.30;99.90
37998;DHT22;24079;51.824;4.682;2023-03-31T17:19:39;11.30;99.90
37998;DHT22;24079;51.824;4.682;2023-03-31T17:22:05;11.30;99.90
37998;DHT22;24079;51.824;4.682;2023-03-31T17:24:31;11.30;99.90
37998;DHT22;24079;51.824;4.682;2023-03-31T17:26:57;11.20;99.90
37998;DHT22;24079;51.824;4.682;2023-03-31T17:29:23;11.20;99.90
37998;DHT22;24079;51.824;4.682;2023-03-31T17:31:49;11.20;99.90
37998;DHT22;24079;51.824;4.682;2023-03-31T17:34:15;11.20;99.90
37998;DHT22;24079;51.824;4.682;2023-03-31T17:36:42;11.20;99.90
37998;DHT22;24079;51.824;4.682;2023-03-31T17:39:09;11.20;99.90
37998;DHT22;24079;51.824;4.682;2023-03-31T17:41:36;11.20;99.90
37998;DHT22;24079;51.824;4.682;2023-03-31T17:44:02;11.20;99.90
37998;DHT22;24079;51.824;4.682;2023-03-31T17:46:29;11.20;99.90
37998;DHT22;24079;51.824;4.682;2023-03-31T17:48:55;11.30;99.90
37998;DHT22;24079;51.824;4.682;2023-03-31T17:51:22;11.30;99.90
37998;DHT22;24079;51.824;4.682;2023-03-31T17:53:49;11.30;99.90
37998;DHT22;24079;51.824;4.682;2023-03-31T17:56:16;11.20;99.90
37998;DHT22;24079;51.824;4.682;2023-03-31T17:58:42;11.20;99.90
37998;DHT22;24079;51.824;4.682;2023-03-31T18:01:09;11.20;99.90
37998;DHT22;24079;51.824;4.682;2023-03-31T18:03:36;11.20;99.90
37998;DHT22;24079;51.824;4.682;2023-03-31T18:06:07;11.20;99.90
37998;DHT22;24079;51.824;4.682;2023-03-31T18:08:36;11.20;99.90
37998;DHT22;24079;51.824;4.682;2023-03-31T18:11:02;11.20;99.90
37998;DHT22;24079;51.824;4.682;2023-03-31T18:13:33;11.20;99.90
37998;DHT22;24079;51.824;4.682;2023-03-31T18:15:59;11.20;99.90
37998;DHT22;24079;51.824;4.682;2023-03-31T18:18:25;11.10;99.90
37998;DHT22;24079;51.824;4.682;2023-03-31T18:20:53;11.10;99.90
37998;DHT22;24079;51.824;4.682;2023-03-31T18:23:20;11.10;99.90
37998;DHT22;24079;51.824;4.682;2023-03-31T18:25:46;11.10;99.90
37998;DHT22;24079;51.824;4.682;2023-03-31T18:28:14;11.10;99.90
37998;DHT22;24079;51.824;4.682;2023-03-31T18:30:41;11.10;99.90
37998;DHT22;24079;51.824;4.682;2023-03-31T18:33:09;11.10;99.90